createdAt,value
2022-12-25T00:01:44.352Z,13.17
2022-12-25T00:04:51.054Z,13.02
2022-12-25T00:08:00.493Z,13.04
2022-12-25T00:11:10.266Z,12.93
2022-12-25T00:14:20.033Z,13.10
2022-12-25T00:17:27.121Z,13.09
2022-12-25T00:20:34.206Z,12.76
2022-12-25T00:23:41.396Z,12.76
2022-12-25T00:26:48.179Z,12.84
2022-12-25T00:29:57.398Z,12.95
2022-12-25T00:33:06.445Z,12.86
2022-12-25T00:36:18.157Z,12.94
2022-12-25T00:39:25.066Z,12.67
2022-12-25T00:42:31.849Z,12.37
2022-12-25T00:45:38.635Z,12.33
2022-12-25T00:48:48.719Z,12.68
2022-12-25T00:51:55.666Z,12.56
2022-12-25T00:55:02.476Z,12.33
2022-12-25T00:58:09.483Z,12.12
2022-12-25T01:01:16.322Z,12.24
2022-12-25T01:04:23.278Z,12.57
2022-12-25T01:07:30.103Z,12.72
2022-12-25T01:10:37.201Z,12.90
2022-12-25T01:13:44.081Z,13.04
2022-12-25T01:16:50.999Z,13.15
2022-12-25T01:19:57.830Z,13.32
2022-12-25T01:23:04.481Z,13.24
2022-12-25T01:26:13.876Z,13.31
2022-12-25T01:29:20.545Z,13.48
2022-12-25T01:32:27.361Z,13.58
2022-12-25T01:35:35.129Z,13.62
2022-12-25T01:38:41.936Z,13.57
2022-12-25T01:41:49.239Z,13.67
2022-12-25T01:45:38.499Z,13.80
2022-12-25T01:48:43.944Z,13.82
2022-12-25T01:51:55.514Z,13.83
2022-12-25T01:55:04.992Z,13.95
2022-12-25T01:58:13.289Z,13.79
2022-12-25T02:01:20.217Z,12.31
2022-12-25T02:04:38.966Z,11.29
2022-12-25T02:07:48.098Z,12.12
2022-12-25T02:10:54.733Z,12.93
2022-12-25T02:14:02.034Z,13.30
2022-12-25T02:17:19.321Z,13.47
2022-12-25T02:20:57.279Z,13.59
2022-12-25T02:24:27.707Z,13.80
2022-12-25T02:28:06.835Z,14.00
2022-12-25T02:31:21.813Z,13.82
2022-12-25T02:34:37.374Z,12.33
2022-12-25T02:37:49.731Z,11.41
2022-12-25T02:41:00.817Z,12.17
2022-12-25T02:44:32.492Z,13.03
2022-12-25T02:47:57.847Z,13.71
2022-12-25T02:51:27.145Z,14.13
2022-12-25T02:54:55.072Z,13.83
2022-12-25T02:58:26.105Z,12.22
2022-12-25T03:01:53.421Z,11.59
2022-12-25T03:05:20.109Z,12.70
2022-12-25T03:08:34.982Z,13.42
2022-12-25T03:11:41.956Z,13.80
2022-12-25T03:15:09.718Z,14.06
2022-12-25T03:18:22.381Z,13.88
2022-12-25T03:21:47.664Z,12.45
2022-12-25T03:25:12.698Z,11.73
2022-12-25T03:28:19.526Z,12.80
2022-12-25T03:31:35.048Z,13.56
2022-12-25T03:35:06.497Z,14.01
2022-12-25T03:38:46.959Z,14.19
2022-12-25T03:42:17.172Z,13.63
2022-12-25T03:45:47.841Z,11.92
2022-12-25T03:49:21.659Z,11.27
2022-12-25T03:52:48.558Z,12.41
2022-12-25T03:56:13.939Z,13.24
2022-12-25T03:59:41.348Z,13.70
2022-12-25T04:03:05.848Z,13.86
2022-12-25T04:06:30.132Z,13.99
2022-12-25T04:09:54.445Z,14.14
2022-12-25T04:13:19.006Z,14.25
2022-12-25T04:16:43.372Z,14.34
2022-12-25T04:20:08.065Z,14.06
2022-12-25T04:23:32.125Z,12.32
2022-12-25T04:26:56.711Z,11.44
2022-12-25T04:30:21.251Z,12.41
2022-12-25T04:33:45.320Z,13.27
2022-12-25T04:36:52.103Z,13.76
2022-12-25T04:39:58.882Z,14.03
2022-12-25T04:43:06.574Z,14.27
2022-12-25T04:46:13.376Z,14.41
2022-12-25T04:49:20.031Z,14.14
2022-12-25T04:52:26.882Z,12.60
2022-12-25T04:55:33.786Z,11.62
2022-12-25T04:58:40.711Z,12.46
2022-12-25T05:01:47.596Z,13.24
2022-12-25T05:04:54.501Z,13.67
2022-12-25T05:08:01.229Z,13.98
2022-12-25T05:11:14.549Z,14.17
2022-12-25T05:14:21.454Z,14.29
2022-12-25T05:17:28.287Z,14.27
2022-12-25T05:20:39.973Z,14.39
2022-12-25T05:23:50.273Z,14.43
2022-12-25T05:26:58.318Z,14.48
2022-12-25T05:30:05.448Z,14.35
2022-12-25T05:33:12.268Z,12.88
2022-12-25T05:36:19.549Z,11.39
2022-12-25T05:39:26.406Z,10.83
2022-12-25T05:42:33.201Z,11.95
2022-12-25T05:45:40.005Z,12.87
2022-12-25T05:48:47.428Z,13.34
2022-12-25T05:51:55.027Z,13.50
2022-12-25T05:55:02.339Z,13.68
2022-12-25T05:58:09.711Z,13.63
2022-12-25T06:01:19.331Z,13.94
2022-12-25T06:04:26.713Z,13.86
2022-12-25T06:07:33.564Z,14.04
2022-12-25T06:10:40.272Z,14.23
2022-12-25T06:13:50.368Z,14.21
2022-12-25T06:16:57.244Z,13.90
2022-12-25T06:20:04.226Z,14.07
2022-12-25T06:23:11.400Z,13.90
2022-12-25T06:26:20.774Z,13.92
2022-12-25T06:29:27.823Z,13.99
2022-12-25T06:32:34.665Z,13.99
2022-12-25T06:35:42.769Z,14.12
2022-12-25T06:38:50.081Z,14.11
2022-12-25T06:41:59.165Z,12.83
2022-12-25T06:45:07.044Z,12.02
2022-12-25T06:48:13.771Z,12.89
2022-12-25T06:51:21.857Z,13.60
2022-12-25T06:54:28.759Z,13.97
2022-12-25T06:57:35.590Z,14.20
2022-12-25T07:00:42.586Z,14.48
2022-12-25T07:03:51.163Z,14.07
2022-12-25T07:07:01.817Z,12.51
2022-12-25T07:10:12.744Z,12.21
2022-12-25T07:13:19.569Z,13.27
2022-12-25T07:16:26.434Z,13.99
2022-12-25T07:19:33.309Z,14.31
2022-12-25T07:22:40.020Z,14.26
2022-12-25T07:25:53.898Z,12.73
2022-12-25T07:29:00.697Z,12.24
2022-12-25T07:32:08.259Z,13.22
2022-12-25T07:35:15.535Z,13.96
2022-12-25T07:38:22.298Z,14.47
2022-12-25T07:41:28.983Z,14.38
2022-12-25T07:44:35.833Z,12.97
2022-12-25T07:47:42.780Z,11.78
2022-12-25T07:50:49.458Z,11.29
2022-12-25T07:53:56.895Z,12.30
2022-12-25T07:57:03.679Z,13.24
2022-12-25T08:00:12.781Z,13.85
2022-12-25T08:03:20.027Z,14.11
2022-12-25T08:06:35.943Z,14.60
2022-12-25T08:09:44.562Z,14.03
2022-12-25T08:12:52.223Z,12.29
2022-12-25T08:16:04.466Z,12.36
2022-12-25T08:19:14.561Z,13.19
2022-12-25T08:22:21.431Z,13.67
2022-12-25T08:25:28.450Z,13.65
2022-12-25T08:28:36.679Z,13.77
2022-12-25T08:31:46.684Z,13.88
2022-12-25T08:34:55.164Z,13.58
2022-12-25T08:38:01.982Z,13.86
2022-12-25T08:41:11.088Z,13.60
2022-12-25T08:44:17.870Z,13.84
2022-12-25T08:47:24.766Z,12.39
2022-12-25T08:50:32.965Z,12.86
2022-12-25T08:53:39.720Z,13.08
2022-12-25T08:56:46.325Z,13.61
2022-12-25T08:59:53.155Z,13.33
2022-12-25T09:03:00.038Z,13.00
2022-12-25T09:06:09.827Z,12.85
2022-12-25T09:09:21.198Z,13.48
2022-12-25T09:12:28.065Z,13.78
2022-12-25T09:15:35.072Z,12.62
2022-12-25T09:18:42.102Z,11.29
2022-12-25T09:21:50.274Z,11.57
2022-12-25T09:24:57.272Z,12.62
2022-12-25T09:28:05.626Z,13.32
2022-12-25T09:31:12.698Z,13.67
2022-12-25T09:34:19.957Z,13.65
2022-12-25T09:37:26.750Z,12.33
2022-12-25T09:40:34.764Z,12.31
2022-12-25T09:43:46.422Z,13.36
2022-12-25T09:46:58.949Z,13.93
2022-12-25T09:50:13.374Z,13.94
2022-12-25T09:53:26.730Z,13.38
2022-12-25T09:56:35.300Z,12.02
2022-12-25T09:59:43.313Z,11.11
2022-12-25T10:03:05.621Z,10.94
2022-12-25T10:06:20.193Z,12.39
2022-12-25T10:09:42.848Z,13.33
2022-12-25T10:13:01.499Z,13.71
2022-12-25T10:16:19.187Z,13.77
2022-12-25T10:19:41.504Z,12.48
2022-12-25T10:22:52.862Z,11.36
2022-12-25T10:25:59.768Z,11.01
2022-12-25T10:29:14.294Z,12.35
2022-12-25T10:32:20.995Z,13.55
2022-12-25T10:35:32.762Z,14.25
2022-12-25T10:38:39.501Z,14.14
2022-12-25T10:42:04.316Z,12.70
2022-12-25T10:45:12.215Z,12.12
2022-12-25T10:48:26.186Z,13.26
2022-12-25T10:51:35.375Z,14.05
2022-12-25T10:54:43.423Z,13.99
2022-12-25T10:57:50.491Z,12.62
2022-12-25T11:01:00.471Z,11.45
2022-12-25T11:04:07.380Z,11.09
2022-12-25T11:07:25.688Z,12.42
2022-12-25T11:10:35.627Z,13.45
2022-12-25T11:13:51.888Z,14.00
2022-12-25T11:17:15.492Z,13.98
2022-12-25T11:20:23.805Z,12.55
2022-12-25T11:23:32.543Z,11.45
2022-12-25T11:26:49.818Z,11.66
2022-12-25T11:29:59.679Z,13.09
2022-12-25T11:33:14.113Z,13.86
2022-12-25T11:36:25.623Z,14.32
2022-12-25T11:39:34.233Z,14.24
2022-12-25T11:42:45.411Z,12.81
2022-12-25T11:45:57.899Z,11.59
2022-12-25T11:49:14.951Z,11.30
2022-12-25T11:52:23.624Z,12.52
2022-12-25T11:55:36.624Z,13.14
2022-12-25T11:58:46.483Z,13.44
2022-12-25T12:01:57.956Z,13.61
2022-12-25T12:05:16.373Z,13.84
2022-12-25T12:08:23.150Z,14.02
2022-12-25T12:11:40.720Z,14.21
2022-12-25T12:14:53.565Z,14.06
2022-12-25T12:18:20.347Z,12.71
2022-12-25T12:21:29.988Z,11.97
2022-12-25T12:24:42.860Z,13.22
2022-12-25T12:28:02.831Z,13.96
2022-12-25T12:31:12.022Z,14.06
2022-12-25T12:34:26.065Z,14.09
2022-12-25T12:37:36.861Z,14.16
2022-12-25T12:40:52.072Z,13.08
2022-12-25T12:44:04.469Z,11.78
2022-12-25T12:47:31.421Z,12.02
2022-12-25T12:50:41.199Z,13.04
2022-12-25T12:53:50.793Z,13.68
2022-12-25T12:57:00.741Z,13.88
2022-12-25T13:00:13.289Z,13.91
2022-12-25T13:03:33.482Z,14.09
2022-12-25T13:06:45.017Z,14.31
2022-12-25T13:10:04.017Z,14.35
2022-12-25T13:13:17.415Z,14.05
2022-12-25T13:16:29.298Z,12.57
2022-12-25T13:19:39.512Z,11.74
2022-12-25T13:22:52.410Z,12.72
2022-12-25T13:26:01.657Z,13.21
2022-12-25T13:29:19.811Z,13.39
2022-12-25T13:32:29.875Z,13.58
2022-12-25T13:35:43.659Z,13.79
2022-12-25T13:38:52.980Z,13.90
2022-12-25T13:42:10.521Z,14.03
2022-12-25T13:45:25.952Z,13.87
2022-12-25T13:48:34.030Z,12.57
2022-12-25T13:51:40.783Z,11.21
2022-12-25T13:55:02.633Z,10.79
2022-12-25T13:58:19.006Z,12.15
2022-12-25T14:01:26.190Z,13.21
2022-12-25T14:04:33.097Z,13.66
2022-12-25T14:07:41.781Z,13.87
2022-12-25T14:10:52.272Z,14.13
2022-12-25T14:14:04.866Z,14.21
2022-12-25T14:17:13.988Z,13.94
2022-12-25T14:20:29.769Z,12.48
2022-12-25T14:23:46.598Z,11.20
2022-12-25T14:27:00.255Z,11.60
2022-12-25T14:30:13.533Z,12.48
2022-12-25T14:33:23.791Z,12.92
2022-12-25T14:36:31.929Z,13.29
2022-12-25T14:39:39.859Z,13.63
2022-12-25T14:42:59.309Z,13.69
2022-12-25T14:46:06.431Z,13.83
2022-12-25T14:49:26.102Z,13.72
2022-12-25T14:52:40.502Z,13.55
2022-12-25T14:55:54.118Z,13.61
2022-12-25T14:59:03.007Z,13.68
2022-12-25T15:02:20.210Z,13.72
2022-12-25T15:05:30.560Z,13.68
2022-12-25T15:08:37.751Z,13.55
2022-12-25T15:11:44.410Z,13.47
2022-12-25T15:14:53.680Z,13.40
2022-12-25T15:18:02.232Z,13.37
2022-12-25T15:21:14.273Z,13.22
2022-12-25T15:24:21.249Z,13.12
2022-12-25T15:27:28.001Z,13.14
2022-12-25T15:30:37.120Z,13.02
2022-12-25T15:33:46.980Z,13.02
2022-12-25T15:36:53.899Z,13.11
2022-12-25T15:40:02.196Z,13.24
2022-12-25T15:43:22.548Z,13.28
2022-12-25T15:46:37.751Z,13.15
2022-12-25T15:49:45.144Z,13.26
2022-12-25T15:52:52.400Z,13.56
2022-12-25T15:55:59.220Z,13.47
2022-12-25T15:59:06.080Z,11.98
2022-12-25T16:02:18.058Z,10.66
2022-12-25T16:05:25.049Z,11.08
2022-12-25T16:08:33.146Z,12.04
2022-12-25T16:11:40.109Z,12.63
2022-12-25T16:14:48.247Z,13.10
2022-12-25T16:17:55.112Z,13.35
2022-12-25T16:21:02.183Z,13.55
2022-12-25T16:24:09.865Z,13.85
2022-12-25T16:27:16.829Z,13.62
2022-12-25T16:30:23.456Z,11.99
2022-12-25T16:33:30.393Z,10.98
2022-12-25T16:36:37.697Z,11.86
2022-12-25T16:39:44.379Z,12.57
2022-12-25T16:42:51.133Z,12.94
2022-12-25T16:45:58.439Z,13.24
2022-12-25T16:49:05.352Z,13.30
2022-12-25T16:52:12.469Z,12.98
2022-12-25T16:55:29.596Z,11.66
2022-12-25T16:58:37.556Z,10.82
2022-12-25T17:01:44.562Z,11.85
2022-12-25T17:04:51.677Z,12.66
2022-12-25T17:07:59.537Z,13.06
2022-12-25T17:11:08.143Z,13.31
2022-12-25T17:14:20.084Z,13.49
2022-12-25T17:17:26.999Z,13.58
2022-12-25T17:20:33.763Z,13.58
2022-12-25T17:23:41.360Z,13.72
2022-12-25T17:26:48.181Z,13.34
2022-12-25T17:29:54.899Z,11.75
2022-12-25T17:33:01.616Z,11.56
2022-12-25T17:36:11.573Z,12.33
2022-12-25T17:39:18.812Z,12.91
2022-12-25T17:42:25.556Z,13.21
2022-12-25T17:45:32.616Z,13.38
2022-12-25T17:48:39.556Z,13.68
2022-12-25T17:51:47.129Z,13.83
2022-12-25T17:54:54.091Z,13.61
2022-12-25T17:58:00.833Z,12.02
2022-12-25T18:01:13.562Z,11.63
2022-12-25T18:04:20.782Z,12.45
2022-12-25T18:07:27.747Z,12.96
2022-12-25T18:10:38.690Z,13.21
2022-12-25T18:13:48.621Z,13.37
2022-12-25T18:16:55.402Z,13.50
2022-12-25T18:20:05.456Z,13.56
2022-12-25T18:23:12.235Z,13.80
2022-12-25T18:26:19.545Z,13.01
2022-12-25T18:29:26.337Z,11.54
2022-12-25T18:32:33.380Z,11.85
2022-12-25T18:35:43.804Z,12.58
2022-12-25T18:38:51.741Z,12.87
2022-12-25T18:42:15.940Z,12.89
2022-12-25T18:45:23.369Z,12.94
2022-12-25T18:48:30.604Z,13.02
2022-12-25T18:51:37.504Z,13.02
2022-12-25T18:54:44.279Z,13.09
2022-12-25T18:57:51.237Z,13.18
2022-12-25T19:00:58.312Z,13.14
2022-12-25T19:04:12.521Z,13.20
2022-12-25T19:07:20.167Z,13.27
2022-12-25T19:10:26.996Z,13.34
2022-12-25T19:13:35.904Z,13.35
2022-12-25T19:16:44.219Z,13.21
2022-12-25T19:19:51.323Z,12.98
2022-12-25T19:22:58.409Z,13.01
2022-12-25T19:26:06.687Z,13.11
2022-12-25T19:29:13.909Z,13.17
2022-12-25T19:32:21.218Z,13.26
2022-12-25T19:35:28.253Z,13.36
2022-12-25T19:38:35.271Z,13.28
2022-12-25T19:41:42.246Z,13.31
2022-12-25T19:44:48.779Z,13.30
2022-12-25T19:47:56.046Z,13.31
2022-12-25T19:51:04.657Z,13.43
2022-12-25T19:54:15.997Z,13.48
2022-12-25T19:57:22.769Z,13.44
2022-12-25T20:00:29.447Z,13.54
2022-12-25T20:03:45.735Z,13.27
2022-12-25T20:06:53.196Z,11.69
2022-12-25T20:09:59.964Z,11.72
2022-12-25T20:13:06.803Z,12.36
2022-12-25T20:16:14.076Z,12.70
2022-12-25T20:19:20.951Z,12.92
2022-12-25T20:22:28.028Z,13.05
2022-12-25T20:25:34.951Z,13.20
2022-12-25T20:28:43.202Z,13.43
2022-12-25T20:31:49.963Z,13.44
2022-12-25T20:34:56.715Z,13.67
2022-12-25T20:38:06.521Z,13.55
2022-12-25T20:41:31.690Z,12.13
2022-12-25T20:44:38.447Z,10.73
2022-12-25T20:47:47.049Z,10.51
2022-12-25T20:50:54.335Z,11.86
2022-12-25T20:54:01.130Z,12.81
2022-12-25T20:57:08.800Z,13.24
2022-12-25T21:00:16.892Z,13.45
2022-12-25T21:03:23.902Z,13.74
2022-12-25T21:06:30.748Z,13.96
2022-12-25T21:09:37.605Z,13.78
2022-12-25T21:12:44.213Z,12.31
2022-12-25T21:15:53.619Z,10.99
2022-12-25T21:19:00.211Z,10.52
2022-12-25T21:22:06.917Z,11.55
2022-12-25T21:25:13.911Z,12.53
2022-12-25T21:28:20.756Z,13.22
2022-12-25T21:31:29.022Z,13.47
2022-12-25T21:34:36.345Z,13.60
2022-12-25T21:37:43.195Z,13.65
2022-12-25T21:40:50.018Z,13.81
2022-12-25T21:43:57.087Z,14.05
2022-12-25T21:47:03.955Z,13.77
2022-12-25T21:50:34.650Z,12.16
2022-12-25T21:53:44.322Z,11.57
2022-12-25T21:56:53.931Z,12.39
2022-12-25T22:00:01.958Z,12.77
2022-12-25T22:03:08.882Z,12.97
2022-12-25T22:06:35.414Z,13.14
2022-12-25T22:09:44.281Z,13.20
2022-12-25T22:13:09.087Z,13.23
2022-12-25T22:16:35.057Z,13.24
2022-12-25T22:19:42.786Z,13.13
2022-12-25T22:22:50.070Z,13.30
2022-12-25T22:25:57.019Z,13.32
2022-12-25T22:29:05.394Z,13.42
2022-12-25T22:32:13.352Z,13.60
2022-12-25T22:35:21.173Z,13.66
2022-12-25T22:38:27.770Z,12.86
2022-12-25T22:41:34.488Z,11.36
2022-12-25T22:44:42.058Z,11.51
2022-12-25T22:47:49.483Z,12.17
2022-12-25T22:50:56.724Z,12.38
2022-12-25T22:54:04.024Z,12.47
2022-12-25T22:57:14.879Z,12.66
2022-12-25T23:00:21.636Z,12.80
2022-12-25T23:03:28.547Z,12.71
2022-12-25T23:06:35.622Z,12.96
2022-12-25T23:09:42.842Z,13.30
2022-12-25T23:13:09.322Z,13.59
2022-12-25T23:16:18.397Z,13.78
2022-12-25T23:19:43.319Z,13.94
2022-12-25T23:23:07.884Z,13.63
2022-12-25T23:26:17.534Z,11.93
2022-12-25T23:29:39.983Z,11.72
2022-12-25T23:32:47.012Z,12.48
2022-12-25T23:35:55.054Z,12.98
2022-12-25T23:39:09.050Z,13.13
2022-12-25T23:42:16.799Z,13.12
2022-12-25T23:45:23.976Z,13.20
2022-12-25T23:48:30.733Z,13.22
2022-12-25T23:51:43.381Z,13.18
2022-12-25T23:54:50.226Z,13.12
2022-12-25T23:57:56.963Z,13.13
